< Typhoon 197505 1975 Season Typhoon 197507 >
Typhoon 197506 (RITA)
General InformationTrack Information on Google Maps || Disaster Info.ResourceGoogle EarthGE AnimationAtom FeedGeoJSON
Detalied Best Track (Time Zone = UTC)
Year Month Day Hour Lat. Long. Pressure (hPa) Wind (kt) Class Image Chart
1975 8 9 18 18.5 114.0 1000 0 2 -- Chart
1975 8 10 00 19.0 114.0 998 0 2 -- Chart
1975 8 10 06 19.0 112.4 998 0 2 -- Chart
1975 8 10 12 19.0 112.0 998 0 2 -- Chart
1975 8 10 18 19.0 111.0 998 0 2 -- Chart
1975 8 11 00 18.8 110.6 994 0 2 -- Chart
1975 8 11 06 18.7 110.4 992 0 2 -- Chart
1975 8 11 12 18.7 110.0 992 0 2 -- Chart
1975 8 11 18 18.7 109.7 992 0 2 -- Chart
1975 8 12 00 18.8 109.4 992 0 2 -- Chart
1975 8 12 06 19.0 110.0 990 0 2 -- Chart
1975 8 12 12 19.0 110.0 990 0 2 -- Chart
1975 8 12 18 20.0 111.0 990 0 2 -- Chart
1975 8 13 00 21.0 112.0 992 0 2 -- Chart
1975 8 13 06 21.5 112.4 992 0 2 -- Chart
1975 8 13 12 21.6 113.4 992 0 2 -- Chart
1975 8 13 18 22.0 114.0 990 0 2 -- Chart
1975 8 14 00 23.0 113.7 992 0 2 -- Chart
1975 8 14 06 24.1 113.9 994 0 2 -- Chart
1975 8 14 12 24.5 114.0 994 0 2 -- Chart
1975 8 14 18 24.8 114.0 994 0 2 -- Chart
1975 8 15 00 25.0 114.0 996 0 2 -- Chart
1975 8 15 06 24.8 114.8 994 0 2 -- Chart
1975 8 15 12 24.0 116.0 996 0 2 -- Chart
1975 8 15 18 24.0 117.0 996 0 2 -- Chart
1975 8 16 00 24.0 118.0 998 0 2 -- Chart
1975 8 16 06 24.0 118.0 996 0 2 -- Chart
1975 8 16 12 24.0 119.1 996 0 2 -- Chart
1975 8 16 18 24.0 120.0 996 0 2 -- Chart
1975 8 17 00 24.0 122.0 996 0 2 -- Chart
1975 8 17 06 23.0 124.0 996 0 2 -- Chart
1975 8 17 12 24.0 125.5 998 0 2 -- Chart
1975 8 17 18 25.0 127.3 996 0 2 -- Chart
1975 8 18 00 25.0 129.0 996 0 2 -- Chart
1975 8 18 06 25.0 130.5 994 0 2 -- Chart
1975 8 18 12 25.0 131.0 994 0 2 -- Chart
1975 8 18 18 25.0 131.0 994 0 2 -- Chart
1975 8 19 00 26.0 130.4 990 0 9 -- Chart
1975 8 19 06 25.9 130.1 990 0 9 -- Chart
1975 8 19 12 25.9 129.6 985 0 9 -- Chart
1975 8 19 18 26.2 129.2 985 0 9 -- Chart
1975 8 20 00 26.6 128.6 985 0 9 -- Chart
1975 8 20 06 27.0 128.4 980 0 9 -- Chart
1975 8 20 12 26.6 129.4 980 0 9 -- Chart
1975 8 20 18 27.4 130.4 980 0 9 -- Chart
1975 8 21 00 28.2 131.2 975 0 9 -- Chart
1975 8 21 06 29.0 131.5 970 0 9 -- Chart
1975 8 21 12 29.5 132.2 970 0 9 -- Chart
1975 8 21 18 30.0 132.7 970 0 9 -- Chart
1975 8 22 00 30.7 133.2 970 0 9 -- Chart
1975 8 22 06 31.7 133.7 970 0 9 -- Chart
1975 8 22 12 33.0 134.2 965 0 9 -- Chart
1975 8 22 18 34.2 134.7 970 0 9 -- Chart
1975 8 23 00 35.8 136.0 980 0 9 -- Chart
1975 8 23 06 38.6 138.4 984 0 9 -- Chart
1975 8 23 12 39.5 140.8 990 0 9 -- Chart
1975 8 23 18 41.8 143.3 992 0 9 -- Chart
1975 8 24 00 44.0 147.0 1000 0 6 -- Chart
1975 8 24 06 47.0 150.5 1000 0 6 -- Chart
1975 8 24 12 52.0 158.0 1000 0 6 -- Chart
1975 8 24 18 54.0 162.0 998 0 6 -- Chart
1975 8 25 00 57.0 164.5 998 0 6 -- Chart
1975 8 25 06 59.5 168.0 995 0 6 -- Chart
1975 8 25 12 61.5 179.5 990 0 6 -- Chart
1975 8 25 18 63.0 179.5 990 0 6 -- Chart
Japan Meteorological Agency Best Track Data | Correction Date : 1989-06-01
< Typhoon 197505 1975 Season Typhoon 197507 >

Help